Terminal Aerodrome Forecast
Issued by NWS Charleston, SC

Home | Current Version | Previous Version | Text Only | Print | Product List | Glossary On
Versions: 1 2 3 4 5 6 7 8 9 10 11 12 13 14 15 16 17 18 19 20
000
FTUS42 KCHS 240000 AAA
TAFSAV
TAF AMD
KSAV 240020Z 2400/2424 17011KT 6SM BR VCTS SCT008 OVC025CB
      TEMPO 2401/2403 VRB20G30KT 2SM TSRA BR SCT005 BKN010CB
     FM240300 19011KT 5SM BR SCT008 OVC015 WS015/22040KT
     FM240800 20008KT 2SM BR OVC008 WS020/22035KT
     FM241500 21012G18KT 6SM BR SCT008 BKN015
     FM241900 21010G16KT P6SM VCSH SCT015 BKN035=

USA.gov is the U.S. government's official web portal to all federal, state and local government web resources and services.